createdAt,value
2022-09-23T00:00:07.036Z,2.86
2022-09-23T00:05:14.747Z,2.86
2022-09-23T00:10:22.667Z,2.86
2022-09-23T00:15:28.951Z,2.86
2022-09-23T00:20:36.104Z,2.87
2022-09-23T00:25:45.116Z,2.85
2022-09-23T00:30:52.606Z,2.86
2022-09-23T00:36:00.002Z,2.86
2022-09-23T00:41:07.752Z,2.86
2022-09-23T00:46:15.283Z,2.86
2022-09-23T00:51:21.867Z,2.85
2022-09-23T00:56:29.619Z,2.85
2022-09-23T01:01:37.818Z,2.86
2022-09-23T01:06:44.732Z,2.85
2022-09-23T01:11:53.563Z,2.86
2022-09-23T01:17:01.669Z,2.85
2022-09-23T01:22:08.661Z,2.85
2022-09-23T01:27:15.506Z,2.85
2022-09-23T01:32:23.333Z,2.85
2022-09-23T01:37:40.328Z,2.85
2022-09-23T01:42:47.774Z,2.84
2022-09-23T01:47:56.268Z,2.85
2022-09-23T01:53:04.784Z,2.86
2022-09-23T01:58:12.122Z,2.86
2022-09-23T02:03:20.093Z,2.86
2022-09-23T02:08:28.470Z,2.84
2022-09-23T02:13:35.670Z,2.85
2022-09-23T02:18:44.043Z,2.85
2022-09-23T02:23:51.323Z,2.86
2022-09-23T02:28:59.075Z,2.84
2022-09-23T02:34:08.055Z,2.85
2022-09-23T02:39:17.017Z,2.84
2022-09-23T02:44:24.748Z,2.84
2022-09-23T02:49:40.744Z,2.85
2022-09-23T02:54:47.941Z,2.84
2022-09-23T02:59:55.767Z,2.84
2022-09-23T03:05:03.669Z,2.84
2022-09-23T03:10:11.452Z,2.84
2022-09-23T03:15:19.289Z,2.85
2022-09-23T03:20:27.447Z,2.84
2022-09-23T03:25:37.363Z,2.85
2022-09-23T03:30:45.324Z,2.83
2022-09-23T03:35:52.129Z,2.84
2022-09-23T03:41:00.407Z,2.84
2022-09-23T03:46:09.152Z,2.84
2022-09-23T03:51:17.369Z,2.84
2022-09-23T03:56:24.589Z,2.84
2022-09-23T04:01:32.538Z,2.84
2022-09-23T04:06:39.670Z,2.84
2022-09-23T04:11:46.868Z,2.84
2022-09-23T04:17:03.335Z,2.84
2022-09-23T04:22:10.811Z,2.84
2022-09-23T04:27:18.262Z,2.84
2022-09-23T04:32:25.216Z,2.84
2022-09-23T04:37:33.013Z,2.84
2022-09-23T04:42:41.467Z,2.84
2022-09-23T04:47:48.910Z,2.84
2022-09-23T04:52:56.578Z,2.84
2022-09-23T04:58:03.130Z,2.84
2022-09-23T05:03:11.365Z,2.84
2022-09-23T05:08:20.069Z,2.84
2022-09-23T05:13:28.457Z,2.85
2022-09-23T05:18:35.818Z,2.84
2022-09-23T05:23:44.195Z,2.84
2022-09-23T05:28:52.601Z,2.84
2022-09-23T05:34:00.574Z,2.85
2022-09-23T05:39:08.360Z,2.85
2022-09-23T05:44:15.791Z,2.86
2022-09-23T05:49:25.048Z,2.84
2022-09-23T05:54:33.373Z,2.85
2022-09-23T05:59:40.767Z,2.85
2022-09-23T06:04:48.371Z,2.86
2022-09-23T06:09:57.777Z,2.86
2022-09-23T06:15:06.362Z,2.86
2022-09-23T06:20:14.335Z,2.87
2022-09-23T06:25:22.539Z,2.89
2022-09-23T06:30:32.259Z,2.89
2022-09-23T06:35:39.193Z,2.89
2022-09-23T06:40:47.024Z,2.88
2022-09-23T06:45:54.818Z,2.89
2022-09-23T06:51:02.864Z,2.89
2022-09-23T06:56:11.884Z,2.9
2022-09-23T07:01:18.991Z,2.89
2022-09-23T07:06:26.337Z,2.89
2022-09-23T07:11:34.243Z,2.9
2022-09-23T07:16:41.215Z,2.89
2022-09-23T07:21:48.941Z,2.9
2022-09-23T07:26:56.871Z,2.9
2022-09-23T07:32:04.309Z,2.9
2022-09-23T07:37:11.966Z,2.9
2022-09-23T07:42:19.768Z,2.91
2022-09-23T07:47:26.315Z,2.9
2022-09-23T07:52:34.242Z,2.91
2022-09-23T07:57:42.510Z,2.91
2022-09-23T08:02:50.639Z,2.91
2022-09-23T08:07:57.974Z,2.91
2022-09-23T08:13:06.068Z,2.91
2022-09-23T08:18:14.426Z,2.91
2022-09-23T08:23:22.376Z,2.92
2022-09-23T08:28:30.586Z,2.92
2022-09-23T08:33:38.827Z,2.92
2022-09-23T08:38:46.669Z,2.92
2022-09-23T08:43:54.340Z,2.92
2022-09-23T08:49:01.750Z,2.92
2022-09-23T08:54:09.386Z,2.91
2022-09-23T08:59:16.784Z,2.92
2022-09-23T09:04:24.064Z,2.92
2022-09-23T09:09:31.241Z,2.93
2022-09-23T09:14:38.977Z,2.92
2022-09-23T09:19:46.827Z,2.92
2022-09-23T09:24:56.335Z,2.93
2022-09-23T09:30:04.182Z,2.92
2022-09-23T09:35:12.189Z,2.93
2022-09-23T09:40:19.530Z,2.94
2022-09-23T09:45:27.657Z,2.92
2022-09-23T09:50:36.048Z,2.93
2022-09-23T09:55:43.673Z,2.93
2022-09-23T10:00:52.344Z,2.92
2022-09-23T10:06:00.118Z,2.92
2022-09-23T10:11:07.837Z,2.92
2022-09-23T10:16:16.124Z,2.93
2022-09-23T10:21:25.018Z,2.93
2022-09-23T10:26:32.520Z,2.93
2022-09-23T10:31:40.082Z,2.93
2022-09-23T10:36:48.085Z,2.93
2022-09-23T10:41:54.757Z,2.94
2022-09-23T10:47:01.323Z,2.94
2022-09-23T10:52:09.281Z,2.93
2022-09-23T10:57:16.480Z,2.93
2022-09-23T11:02:25.235Z,2.95
2022-09-23T11:07:33.330Z,2.95
2022-09-23T11:12:39.903Z,2.94
2022-09-23T11:17:47.741Z,2.93
2022-09-23T11:22:55.513Z,2.94
2022-09-23T11:28:03.374Z,2.94
2022-09-23T11:33:11.260Z,2.94
2022-09-23T11:38:19.712Z,2.94
2022-09-23T11:43:27.768Z,2.95
2022-09-23T11:48:34.835Z,2.94
2022-09-23T11:53:42.849Z,2.94
2022-09-23T11:58:50.472Z,2.95
2022-09-23T12:03:59.704Z,2.94
2022-09-23T12:09:07.489Z,2.94
2022-09-23T12:14:13.993Z,2.95
2022-09-23T12:19:22.527Z,2.95
2022-09-23T12:24:31.543Z,2.94
2022-09-23T12:29:42.271Z,2.95
2022-09-23T12:34:49.877Z,2.95
2022-09-23T12:39:56.385Z,2.95
2022-09-23T12:45:05.182Z,2.95
2022-09-23T12:50:12.725Z,2.95
2022-09-23T12:55:21.702Z,2.95
2022-09-23T13:00:29.397Z,2.95
2022-09-23T13:05:37.560Z,2.95
2022-09-23T13:10:44.762Z,2.95
2022-09-23T13:15:52.244Z,2.95
2022-09-23T13:20:59.174Z,2.95
2022-09-23T13:26:07.173Z,2.95
2022-09-23T13:31:15.438Z,2.95
2022-09-23T13:36:23.780Z,2.95
2022-09-23T13:41:31.630Z,2.96
2022-09-23T13:46:39.026Z,2.96
2022-09-23T13:51:47.184Z,2.95
2022-09-23T13:56:54.684Z,2.95
2022-09-23T14:02:02.617Z,2.95
2022-09-23T14:07:09.743Z,2.96
2022-09-23T14:12:18.027Z,2.96
2022-09-23T14:17:25.976Z,2.96
2022-09-23T14:22:32.521Z,2.96
2022-09-23T14:27:40.899Z,2.95
2022-09-23T14:32:47.898Z,2.95
2022-09-23T14:37:56.205Z,2.95
2022-09-23T14:43:04.607Z,2.96
2022-09-23T14:48:12.143Z,2.96
2022-09-23T14:53:19.021Z,2.95
2022-09-23T14:58:26.648Z,2.95
2022-09-23T15:03:33.415Z,2.96
2022-09-23T15:08:41.836Z,2.95
2022-09-23T15:13:50.725Z,2.95
2022-09-23T15:18:59.585Z,2.95
2022-09-23T15:24:06.654Z,2.94
2022-09-23T15:29:13.857Z,2.94
2022-09-23T15:34:21.049Z,2.94
2022-09-23T15:39:28.482Z,2.94
2022-09-23T15:44:36.779Z,2.94
2022-09-23T15:49:44.935Z,2.94
2022-09-23T15:54:52.829Z,2.94
2022-09-23T15:59:59.614Z,2.94
2022-09-23T16:05:07.068Z,2.93
2022-09-23T16:10:14.598Z,2.93
2022-09-23T16:15:21.678Z,2.92
2022-09-23T16:20:27.809Z,2.92
2022-09-23T16:25:35.622Z,2.92
2022-09-23T16:30:43.096Z,2.91
2022-09-23T16:35:50.656Z,2.92
2022-09-23T16:40:58.499Z,2.92
2022-09-23T16:46:06.341Z,2.91
2022-09-23T16:51:14.554Z,2.91
2022-09-23T16:56:22.076Z,2.9
2022-09-23T17:01:30.581Z,2.91
2022-09-23T17:06:37.705Z,2.9
2022-09-23T17:11:50.029Z,2.89
2022-09-23T17:16:57.219Z,2.9
2022-09-23T17:22:05.219Z,2.89
2022-09-23T17:27:12.273Z,2.89
2022-09-23T17:32:19.468Z,2.9
2022-09-23T17:37:27.317Z,2.89
2022-09-23T17:42:35.139Z,2.89
2022-09-23T17:47:42.337Z,2.89
2022-09-23T17:52:49.747Z,2.88
2022-09-23T17:57:56.755Z,2.88
2022-09-23T18:03:04.774Z,2.88
2022-09-23T18:08:12.542Z,2.89
2022-09-23T18:13:19.627Z,2.88
2022-09-23T18:18:28.009Z,2.88
2022-09-23T18:23:35.992Z,2.88
2022-09-23T18:28:44.181Z,2.88
2022-09-23T18:33:50.985Z,2.88
2022-09-23T18:38:58.921Z,2.88
2022-09-23T18:44:06.618Z,2.89
2022-09-23T18:49:13.943Z,2.87
2022-09-23T18:54:22.888Z,2.88
2022-09-23T18:59:30.196Z,2.88
2022-09-23T19:04:37.432Z,2.88
2022-09-23T19:09:45.136Z,2.88
2022-09-23T19:14:53.118Z,2.87
2022-09-23T19:20:00.913Z,2.88
2022-09-23T19:25:09.326Z,2.88
2022-09-23T19:30:17.283Z,2.88
2022-09-23T19:35:25.438Z,2.87
2022-09-23T19:40:39.312Z,2.86
2022-09-23T19:45:48.433Z,2.87
2022-09-23T19:51:17.758Z,2.86
2022-09-23T19:56:25.920Z,2.88
2022-09-23T20:01:32.480Z,2.86
2022-09-23T20:06:39.681Z,2.87
2022-09-23T20:11:48.393Z,2.87
2022-09-23T20:16:56.723Z,2.88
2022-09-23T20:22:04.440Z,2.87
2022-09-23T20:27:11.636Z,2.86
2022-09-23T20:32:18.908Z,2.86
2022-09-23T20:37:27.849Z,2.86
2022-09-23T20:42:36.373Z,2.86
2022-09-23T20:47:43.666Z,2.86
2022-09-23T20:53:06.134Z,2.86
2022-09-23T20:58:13.630Z,2.87
2022-09-23T21:03:20.756Z,2.87
2022-09-23T21:08:29.428Z,2.88
2022-09-23T21:13:36.918Z,2.86
2022-09-23T21:18:45.151Z,2.86
2022-09-23T21:23:52.612Z,2.87
2022-09-23T21:29:00.967Z,2.86
2022-09-23T21:34:09.774Z,2.86
2022-09-23T21:39:17.376Z,2.86
2022-09-23T21:44:24.594Z,2.86
2022-09-23T21:49:33.087Z,2.86
2022-09-23T21:54:41.437Z,2.86
2022-09-23T21:59:49.069Z,2.86
2022-09-23T22:05:03.370Z,2.85
2022-09-23T22:10:11.399Z,2.85
2022-09-23T22:15:17.382Z,2.86
2022-09-23T22:20:25.698Z,2.86
2022-09-23T22:25:33.678Z,2.86
2022-09-23T22:30:41.950Z,2.86
2022-09-23T22:35:49.439Z,2.86
2022-09-23T22:40:56.315Z,2.86
2022-09-23T22:46:06.868Z,2.86
2022-09-23T22:51:15.466Z,2.86
2022-09-23T22:56:22.672Z,2.86
2022-09-23T23:01:31.220Z,2.85
2022-09-23T23:06:40.079Z,2.86
2022-09-23T23:11:46.831Z,2.86
2022-09-23T23:16:54.194Z,2.86
2022-09-23T23:22:01.968Z,2.85
2022-09-23T23:27:10.208Z,2.86
2022-09-23T23:32:18.717Z,2.86
2022-09-23T23:37:26.636Z,2.85
2022-09-23T23:42:34.515Z,2.85
2022-09-23T23:47:42.302Z,2.86
2022-09-23T23:52:50.549Z,2.86
2022-09-23T23:57:57.408Z,2.86
